createdAt,value
2023-01-17T00:02:16.610Z,3.60
2023-01-17T00:05:02.768Z,3.60
2023-01-17T00:07:49.567Z,3.60
2023-01-17T00:10:22.073Z,3.49
2023-01-17T00:12:52.020Z,3.48
2023-01-17T00:15:23.794Z,3.42
2023-01-17T00:17:51.843Z,3.40
2023-01-17T00:20:45.492Z,3.33
2023-01-17T00:23:44.555Z,3.20
2023-01-17T00:26:18.973Z,3.07
2023-01-17T00:29:06.643Z,2.97
2023-01-17T00:31:53.047Z,2.88
2023-01-17T00:34:39.075Z,2.77
2023-01-17T00:37:25.040Z,2.73
2023-01-17T00:40:11.586Z,2.55
2023-01-17T00:42:57.834Z,2.46
2023-01-17T00:45:43.892Z,2.41
2023-01-17T00:48:31.712Z,2.30
2023-01-17T00:51:17.725Z,2.27
2023-01-17T00:54:04.006Z,2.14
2023-01-17T00:56:50.302Z,2.08
2023-01-17T00:59:36.391Z,2.09
2023-01-17T01:02:22.519Z,2.03
2023-01-17T01:05:08.769Z,2.03
2023-01-17T01:07:55.153Z,1.96
2023-01-17T01:10:41.236Z,1.96
2023-01-17T01:13:27.408Z,1.99
2023-01-17T01:16:13.695Z,1.90
2023-01-17T01:19:00.354Z,1.80
2023-01-17T01:21:46.467Z,1.78
2023-01-17T01:24:32.534Z,1.78
2023-01-17T01:27:18.711Z,1.75
2023-01-17T01:30:04.688Z,1.72
2023-01-17T01:32:56.952Z,1.70
2023-01-17T01:35:26.476Z,1.68
2023-01-17T01:37:53.992Z,1.70
2023-01-17T01:40:22.564Z,1.69
2023-01-17T01:42:54.533Z,1.62
2023-01-17T01:45:24.681Z,1.66
2023-01-17T01:48:22.337Z,1.67
2023-01-17T01:50:50.125Z,1.65
2023-01-17T01:53:18.288Z,1.63
2023-01-17T01:55:45.956Z,1.57
2023-01-17T01:58:23.989Z,1.58
2023-01-17T02:00:51.616Z,1.46
2023-01-17T02:03:25.083Z,1.35
2023-01-17T02:05:52.712Z,1.24
2023-01-17T02:08:21.426Z,1.20
2023-01-17T02:10:49.244Z,1.11
2023-01-17T02:13:17.957Z,1.08
2023-01-17T02:15:45.421Z,0.96
2023-01-17T02:18:34.836Z,0.97
2023-01-17T02:21:26.694Z,0.83
2023-01-17T02:24:24.678Z,0.82
2023-01-17T02:27:00.610Z,0.83
2023-01-17T02:29:37.295Z,0.79
2023-01-17T02:32:14.978Z,0.84
2023-01-17T02:35:14.308Z,0.72
2023-01-17T02:38:00.405Z,0.76
2023-01-17T02:40:35.248Z,0.74
2023-01-17T02:43:05.728Z,0.72
2023-01-17T02:45:33.897Z,0.73
2023-01-17T02:48:01.501Z,0.59
2023-01-17T02:50:39.781Z,0.51
2023-01-17T02:53:30.021Z,0.58
2023-01-17T02:56:03.228Z,0.58
2023-01-17T02:58:50.641Z,0.49
2023-01-17T03:01:47.716Z,0.46
2023-01-17T03:04:18.690Z,0.39
2023-01-17T03:06:54.869Z,0.45
2023-01-17T03:09:22.491Z,0.43
2023-01-17T03:11:52.457Z,0.41
2023-01-17T03:14:20.070Z,0.33
2023-01-17T03:16:47.673Z,0.34
2023-01-17T03:19:16.270Z,0.34
2023-01-17T03:21:44.817Z,0.35
2023-01-17T03:24:12.593Z,0.36
2023-01-17T03:26:40.186Z,0.33
2023-01-17T03:29:07.765Z,0.33
2023-01-17T03:31:35.837Z,0.32
2023-01-17T03:34:03.409Z,0.35
2023-01-17T03:36:31.033Z,0.33
2023-01-17T03:38:58.620Z,0.30
2023-01-17T03:41:26.223Z,0.30
2023-01-17T03:43:54.055Z,0.35
2023-01-17T03:46:23.407Z,0.49
2023-01-17T03:48:51.038Z,0.59
2023-01-17T03:51:19.297Z,0.66
2023-01-17T03:53:47.116Z,0.70
2023-01-17T03:56:14.767Z,0.66
2023-01-17T03:58:42.518Z,0.73
2023-01-17T04:01:10.576Z,0.57
2023-01-17T04:03:56.396Z,0.37
2023-01-17T04:06:24.224Z,0.28
2023-01-17T04:08:52.115Z,0.28
2023-01-17T04:11:19.937Z,0.16
2023-01-17T04:13:49.659Z,0.06
2023-01-17T04:16:17.532Z,-0.02
2023-01-17T04:18:45.108Z,0.04
2023-01-17T04:21:13.096Z,0.12
2023-01-17T04:23:41.119Z,0.14
2023-01-17T04:26:09.671Z,0.16
2023-01-17T04:28:37.509Z,0.18
2023-01-17T04:31:05.246Z,0.21
2023-01-17T04:33:33.549Z,0.24
2023-01-17T04:36:01.140Z,0.27
2023-01-17T04:38:28.799Z,0.29
2023-01-17T04:40:56.393Z,0.34
2023-01-17T04:43:24.024Z,0.39
2023-01-17T04:45:56.535Z,0.44
2023-01-17T04:48:24.703Z,0.48
2023-01-17T04:50:52.239Z,0.52
2023-01-17T04:53:19.803Z,0.61
2023-01-17T04:55:47.371Z,0.67
2023-01-17T04:58:14.950Z,0.77
2023-01-17T05:00:42.513Z,0.76
2023-01-17T05:03:10.584Z,0.78
2023-01-17T05:05:38.120Z,0.83
2023-01-17T05:08:06.043Z,0.83
2023-01-17T05:10:34.910Z,0.87
2023-01-17T05:13:03.253Z,0.85
2023-01-17T05:15:30.881Z,0.89
2023-01-17T05:17:58.654Z,0.90
2023-01-17T05:20:26.668Z,0.95
2023-01-17T05:22:55.651Z,0.99
2023-01-17T05:25:28.133Z,0.94
2023-01-17T05:27:55.887Z,1.08
2023-01-17T05:30:23.732Z,1.01
2023-01-17T05:32:52.169Z,1.02
2023-01-17T05:35:21.070Z,1.03
2023-01-17T05:37:51.884Z,0.98
2023-01-17T05:40:21.197Z,0.95
2023-01-17T05:42:55.011Z,1.01
2023-01-17T05:45:23.469Z,1.13
2023-01-17T05:47:52.117Z,1.17
2023-01-17T05:50:25.925Z,1.19
2023-01-17T05:52:55.903Z,1.22
2023-01-17T05:55:23.958Z,1.36
2023-01-17T05:57:51.671Z,1.43
2023-01-17T06:00:19.942Z,1.45
2023-01-17T06:02:47.853Z,1.44
2023-01-17T06:05:17.792Z,1.50
2023-01-17T06:07:46.180Z,1.61
2023-01-17T06:10:14.690Z,1.58
2023-01-17T06:12:43.344Z,1.69
2023-01-17T06:15:14.196Z,1.71
2023-01-17T06:17:42.353Z,1.80
2023-01-17T06:20:11.018Z,1.71
2023-01-17T06:22:38.745Z,1.80
2023-01-17T06:25:07.159Z,1.89
2023-01-17T06:27:35.165Z,1.93
2023-01-17T06:30:03.972Z,2.06
2023-01-17T06:32:31.860Z,2.17
2023-01-17T06:34:59.364Z,2.18
2023-01-17T06:37:26.948Z,2.23
2023-01-17T06:39:54.614Z,2.39
2023-01-17T06:42:22.425Z,2.50
2023-01-17T06:44:49.936Z,2.60
2023-01-17T06:47:17.496Z,2.58
2023-01-17T06:49:44.990Z,2.58
2023-01-17T06:52:12.529Z,2.60
2023-01-17T06:54:40.322Z,2.72
2023-01-17T06:57:07.848Z,2.79
2023-01-17T06:59:35.452Z,2.81
2023-01-17T07:02:03.031Z,2.88
2023-01-17T07:04:30.812Z,2.90
2023-01-17T07:06:58.320Z,2.99
2023-01-17T07:09:25.861Z,2.94
2023-01-17T07:11:59.728Z,2.98
2023-01-17T07:14:27.588Z,3.09
2023-01-17T07:16:55.787Z,3.09
2023-01-17T07:19:24.153Z,3.04
2023-01-17T07:21:52.738Z,3.07
2023-01-17T07:24:20.635Z,3.13
2023-01-17T07:26:49.273Z,3.27
2023-01-17T07:29:17.024Z,3.29
2023-01-17T07:31:44.756Z,3.39
2023-01-17T07:34:12.489Z,3.48
2023-01-17T07:36:40.001Z,3.55
2023-01-17T07:39:10.683Z,3.54
2023-01-17T07:41:41.512Z,3.46
2023-01-17T07:44:12.192Z,3.45
2023-01-17T07:46:40.356Z,3.43
2023-01-17T07:49:08.265Z,3.51
2023-01-17T07:51:35.979Z,3.56
2023-01-17T07:54:03.774Z,3.61
2023-01-17T07:56:31.562Z,3.64
2023-01-17T07:58:59.148Z,3.74
2023-01-17T08:01:27.475Z,3.72
2023-01-17T08:04:10.043Z,3.79
2023-01-17T08:06:38.113Z,3.77
2023-01-17T08:09:07.049Z,3.88
2023-01-17T08:11:35.159Z,3.84
2023-01-17T08:14:02.758Z,4.01
2023-01-17T08:16:32.985Z,4.00
2023-01-17T08:19:00.734Z,4.06
2023-01-17T08:21:28.793Z,4.29
2023-01-17T08:23:56.687Z,4.42
2023-01-17T08:26:25.069Z,4.44
2023-01-17T08:28:57.097Z,4.55
2023-01-17T08:31:24.946Z,4.49
2023-01-17T08:33:52.789Z,4.59
2023-01-17T08:36:20.815Z,4.71
2023-01-17T08:38:53.031Z,4.75
2023-01-17T08:41:21.526Z,4.83
2023-01-17T08:43:49.608Z,5.02
2023-01-17T08:46:17.525Z,5.01
2023-01-17T08:48:45.235Z,5.08
2023-01-17T08:51:13.020Z,5.06
2023-01-17T08:53:40.873Z,5.19
2023-01-17T08:56:09.380Z,5.26
2023-01-17T08:58:37.042Z,5.32
2023-01-17T09:01:05.717Z,5.37
2023-01-17T09:03:34.069Z,5.30
2023-01-17T09:06:09.027Z,5.36
2023-01-17T09:08:41.755Z,5.38
2023-01-17T09:11:13.814Z,5.36
2023-01-17T09:13:41.462Z,5.35
2023-01-17T09:16:09.499Z,5.49
2023-01-17T09:18:40.789Z,5.40
2023-01-17T09:21:16.077Z,5.35
2023-01-17T09:23:43.884Z,5.33
2023-01-17T09:26:22.427Z,5.49
2023-01-17T09:28:50.192Z,5.45
2023-01-17T09:31:18.523Z,5.47
2023-01-17T09:33:46.693Z,5.50
2023-01-17T09:36:14.345Z,5.61
2023-01-17T09:38:41.964Z,5.63
2023-01-17T09:41:23.705Z,5.55
2023-01-17T09:43:52.616Z,5.53
2023-01-17T09:46:24.030Z,5.59
2023-01-17T09:48:57.249Z,5.62
2023-01-17T09:51:26.371Z,5.59
2023-01-17T09:53:53.924Z,5.60
2023-01-17T09:56:29.775Z,5.52
2023-01-17T09:59:08.714Z,5.61
2023-01-17T10:01:42.372Z,5.74
2023-01-17T10:04:34.831Z,5.82
2023-01-17T10:07:13.638Z,5.95
2023-01-17T10:09:53.847Z,5.65
2023-01-17T10:12:44.906Z,5.79
2023-01-17T10:15:39.287Z,5.78
2023-01-17T10:18:30.522Z,5.67
2023-01-17T10:21:01.683Z,5.72
2023-01-17T10:24:06.663Z,5.66
2023-01-17T10:26:34.444Z,5.68
2023-01-17T10:29:04.116Z,5.75
2023-01-17T10:31:39.402Z,5.60
2023-01-17T10:34:13.857Z,5.61
2023-01-17T10:36:47.010Z,5.67
2023-01-17T10:39:22.222Z,5.78
2023-01-17T10:42:00.966Z,5.67
2023-01-17T10:44:35.978Z,5.83
2023-01-17T10:47:15.025Z,5.93
2023-01-17T10:49:47.416Z,5.85
2023-01-17T10:52:24.702Z,5.88
2023-01-17T10:54:52.357Z,6.09
2023-01-17T10:57:24.443Z,5.95
2023-01-17T10:59:52.541Z,6.02
2023-01-17T11:02:30.428Z,6.09
2023-01-17T11:04:58.466Z,6.02
2023-01-17T11:07:27.447Z,6.19
2023-01-17T11:09:58.865Z,6.15
2023-01-17T11:12:46.440Z,6.33
2023-01-17T11:15:13.932Z,6.36
2023-01-17T11:18:00.341Z,6.19
2023-01-17T11:20:38.144Z,6.27
2023-01-17T11:23:06.438Z,6.30
2023-01-17T11:25:34.559Z,6.39
2023-01-17T11:28:40.501Z,6.58
2023-01-17T11:31:24.067Z,6.56
2023-01-17T11:34:18.783Z,6.49
2023-01-17T11:36:50.234Z,6.60
2023-01-17T11:39:18.319Z,6.62
2023-01-17T11:41:47.910Z,6.38
2023-01-17T11:44:31.022Z,6.48
2023-01-17T11:47:09.943Z,6.60
2023-01-17T11:49:38.356Z,6.66
2023-01-17T11:52:10.202Z,6.75
2023-01-17T11:54:42.832Z,6.77
2023-01-17T11:57:32.042Z,6.89
2023-01-17T12:00:09.176Z,6.85
2023-01-17T12:02:52.357Z,6.76
2023-01-17T12:05:33.792Z,6.92
2023-01-17T12:08:30.615Z,6.93
2023-01-17T12:11:16.889Z,6.74
2023-01-17T12:14:02.803Z,6.89
2023-01-17T12:16:52.332Z,6.94
2023-01-17T12:19:27.254Z,6.73
2023-01-17T12:22:13.763Z,6.82
2023-01-17T12:24:50.643Z,6.75
2023-01-17T12:27:43.487Z,6.87
2023-01-17T12:30:25.582Z,7.04
2023-01-17T12:33:09.563Z,6.83
2023-01-17T12:35:38.950Z,7.09
2023-01-17T12:38:14.044Z,7.05
2023-01-17T12:40:52.083Z,6.97
2023-01-17T12:43:33.621Z,7.22
2023-01-17T12:46:03.325Z,7.24
2023-01-17T12:48:34.806Z,7.40
2023-01-17T12:51:09.162Z,7.19
2023-01-17T12:54:13.402Z,7.32
2023-01-17T12:57:03.868Z,7.35
2023-01-17T12:59:50.159Z,7.56
2023-01-17T13:02:23.209Z,7.56
2023-01-17T13:04:58.856Z,7.53
2023-01-17T13:08:15.315Z,7.59
2023-01-17T13:10:59.797Z,7.40
2023-01-17T13:13:29.015Z,7.40
2023-01-17T13:16:07.537Z,7.39
2023-01-17T13:18:35.510Z,7.43
2023-01-17T13:21:27.499Z,7.47
2023-01-17T13:23:59.285Z,7.49
2023-01-17T13:26:53.484Z,7.33
2023-01-17T13:29:39.569Z,7.38
2023-01-17T13:32:40.396Z,7.47
2023-01-17T13:35:42.999Z,7.42
2023-01-17T13:38:34.761Z,7.40
2023-01-17T13:41:10.896Z,7.40
2023-01-17T13:43:40.885Z,7.54
2023-01-17T13:46:08.694Z,7.45
2023-01-17T13:48:41.105Z,7.40
2023-01-17T13:51:09.730Z,7.52
2023-01-17T13:53:40.217Z,7.48
2023-01-17T13:56:20.170Z,7.37
2023-01-17T13:58:52.007Z,7.34
2023-01-17T14:01:22.826Z,7.36
2023-01-17T14:03:50.529Z,7.41
2023-01-17T14:06:37.160Z,7.34
2023-01-17T14:09:29.936Z,7.45
2023-01-17T14:12:05.586Z,7.40
2023-01-17T14:14:45.635Z,7.41
2023-01-17T14:17:17.651Z,7.29
2023-01-17T14:19:48.481Z,7.28
2023-01-17T14:22:19.222Z,7.19
2023-01-17T14:25:09.952Z,7.28
2023-01-17T14:27:58.552Z,7.20
2023-01-17T14:30:28.579Z,7.15
2023-01-17T14:32:59.130Z,7.24
2023-01-17T14:35:40.907Z,7.18
2023-01-17T14:38:22.855Z,7.14
2023-01-17T14:40:56.311Z,7.08
2023-01-17T14:43:27.576Z,7.07
2023-01-17T14:46:02.413Z,7.00
2023-01-17T14:48:30.329Z,7.09
2023-01-17T14:51:00.523Z,7.10
2023-01-17T14:53:31.822Z,7.07
2023-01-17T14:56:12.384Z,6.98
2023-01-17T14:58:41.376Z,6.96
2023-01-17T15:01:16.371Z,7.13
2023-01-17T15:03:51.068Z,7.13
2023-01-17T15:06:20.968Z,7.12
2023-01-17T15:08:49.149Z,7.09
2023-01-17T15:11:26.998Z,7.13
2023-01-17T15:13:57.632Z,7.13
2023-01-17T15:16:30.286Z,7.17
2023-01-17T15:18:57.969Z,7.08
2023-01-17T15:21:28.440Z,7.17
2023-01-17T15:24:01.584Z,7.21
2023-01-17T15:26:32.010Z,7.14
2023-01-17T15:29:05.578Z,7.26
2023-01-17T15:31:43.724Z,7.21
2023-01-17T15:34:38.209Z,7.14
2023-01-17T15:37:24.606Z,7.14
2023-01-17T15:39:52.344Z,7.15
2023-01-17T15:42:23.192Z,7.10
2023-01-17T15:44:55.548Z,7.13
2023-01-17T15:47:40.974Z,7.11
2023-01-17T15:50:30.676Z,7.12
2023-01-17T15:53:05.350Z,7.11
2023-01-17T15:55:37.216Z,6.98
2023-01-17T15:58:05.872Z,7.11
2023-01-17T16:00:38.489Z,7.01
2023-01-17T16:03:31.886Z,7.14
2023-01-17T16:06:00.879Z,7.00
2023-01-17T16:08:40.616Z,6.97
2023-01-17T16:11:08.715Z,7.00
2023-01-17T16:13:42.436Z,6.91
2023-01-17T16:16:13.250Z,6.98
2023-01-17T16:18:44.378Z,6.89
2023-01-17T16:21:21.428Z,6.95
2023-01-17T16:23:49.459Z,6.85
2023-01-17T16:26:17.148Z,6.85
2023-01-17T16:28:45.931Z,6.77
2023-01-17T16:31:13.738Z,6.79
2023-01-17T16:33:42.557Z,6.76
2023-01-17T16:36:13.141Z,6.64
2023-01-17T16:38:41.403Z,6.70
2023-01-17T16:41:09.132Z,6.69
2023-01-17T16:43:37.186Z,6.63
2023-01-17T16:46:05.024Z,6.61
2023-01-17T16:48:33.853Z,6.70
2023-01-17T16:51:02.288Z,6.55
2023-01-17T16:53:30.150Z,6.62
2023-01-17T16:55:59.665Z,6.59
2023-01-17T16:58:28.503Z,6.49
2023-01-17T17:00:56.788Z,6.63
2023-01-17T17:03:25.249Z,6.59
2023-01-17T17:05:59.147Z,6.59
2023-01-17T17:08:29.253Z,6.57
2023-01-17T17:11:15.426Z,6.58
2023-01-17T17:13:44.795Z,6.55
2023-01-17T17:16:17.758Z,6.53
2023-01-17T17:18:46.171Z,6.55
2023-01-17T17:21:14.137Z,6.51
2023-01-17T17:23:43.335Z,6.53
2023-01-17T17:26:11.443Z,6.56
2023-01-17T17:28:39.106Z,6.58
2023-01-17T17:31:10.548Z,6.49
2023-01-17T17:33:41.751Z,6.58
2023-01-17T17:36:12.742Z,6.55
2023-01-17T17:38:58.276Z,6.57
2023-01-17T17:41:27.624Z,6.59
2023-01-17T17:43:55.334Z,6.57
2023-01-17T17:46:24.051Z,6.63
2023-01-17T17:48:52.055Z,6.60
2023-01-17T17:51:27.980Z,6.57
2023-01-17T17:53:56.355Z,6.65
2023-01-17T17:56:24.042Z,6.65
2023-01-17T17:58:51.881Z,6.60
2023-01-17T18:01:22.877Z,6.63
2023-01-17T18:03:52.137Z,6.61
2023-01-17T18:06:20.133Z,6.64
2023-01-17T18:08:48.736Z,6.66
2023-01-17T18:11:22.773Z,6.59
2023-01-17T18:13:51.268Z,6.62
2023-01-17T18:16:24.239Z,6.55
2023-01-17T18:18:53.699Z,6.55
2023-01-17T18:21:25.489Z,6.60
2023-01-17T18:24:00.634Z,6.59
2023-01-17T18:26:39.064Z,6.58
2023-01-17T18:29:07.607Z,6.60
2023-01-17T18:31:35.833Z,6.64
2023-01-17T18:34:05.797Z,6.52
2023-01-17T18:36:34.976Z,6.56
2023-01-17T18:39:05.183Z,6.52
2023-01-17T18:41:33.390Z,6.54
2023-01-17T18:44:04.189Z,6.63
2023-01-17T18:46:32.132Z,6.54
2023-01-17T18:48:59.875Z,6.59
2023-01-17T18:51:29.010Z,6.56
2023-01-17T18:53:58.152Z,6.57
2023-01-17T18:56:30.763Z,6.56
2023-01-17T18:58:58.489Z,6.55
2023-01-17T19:01:29.114Z,6.51
2023-01-17T19:03:58.123Z,6.48
2023-01-17T19:06:33.438Z,6.46
2023-01-17T19:09:01.759Z,6.46
2023-01-17T19:11:29.680Z,6.40
2023-01-17T19:13:57.529Z,6.42
2023-01-17T19:16:30.340Z,6.47
2023-01-17T22:27:41.850Z,7.01
2023-01-17T22:30:13.171Z,7.03
2023-01-17T22:32:41.088Z,6.91
2023-01-17T22:35:09.618Z,6.98
2023-01-17T22:37:37.647Z,6.95
2023-01-17T22:40:06.155Z,6.96
2023-01-17T22:42:34.646Z,7.01
2023-01-17T22:45:05.092Z,6.92
2023-01-17T22:47:34.419Z,6.98
2023-01-17T22:50:02.351Z,7.06
2023-01-17T22:52:30.454Z,7.05
2023-01-17T22:54:58.364Z,7.00
2023-01-17T22:57:26.065Z,7.05
2023-01-17T22:59:53.981Z,7.04
2023-01-17T23:02:21.906Z,7.11
2023-01-17T23:04:49.738Z,7.02
2023-01-17T23:07:18.245Z,7.04
2023-01-17T23:09:46.117Z,7.03
2023-01-17T23:12:13.809Z,6.99
2023-01-17T23:15:01.872Z,7.01
2023-01-17T23:17:48.011Z,7.01
2023-01-17T23:20:15.758Z,7.09
2023-01-17T23:22:43.347Z,7.08
2023-01-17T23:25:13.466Z,7.14
2023-01-17T23:28:03.397Z,7.03
2023-01-17T23:30:34.680Z,7.08
2023-01-17T23:33:03.260Z,6.98
2023-01-17T23:35:32.663Z,7.04
2023-01-17T23:38:18.870Z,7.11
2023-01-17T23:41:06.757Z,7.21
2023-01-17T23:43:34.947Z,7.26
2023-01-17T23:46:02.788Z,7.16
2023-01-17T23:48:31.390Z,7.20
2023-01-17T23:51:30.639Z,7.39
2023-01-17T23:54:05.547Z,7.33
2023-01-17T23:56:33.769Z,7.35
2023-01-17T23:59:01.550Z,7.26
